ROMMA est une association bénévole à but non lucratif. Votre soutien est indispensable : ADHERER à ROMMA ou FAIRE un DON

Die - (26, Drôme)

Diois (400 m)   Longitude: 5° 21' 55"E   Latitude: 44° 45' 16"N Station partenaire n°159
 

Détail journalier du     <<     >>

Température Precipitation Humidité Pression Vent Dir Rafale Dir. rafale Ensol.
Heure (°C) (mm) (%) (hPa) (km/h) (km/h) (min)
01:00 16.306110155NO16NNO0
02:00 15.406010145ONO16NO0
03:00 15.606010145NO19NO0
04:00 15.406110146NO24ONO0
05:00 15.106410145NO18NO0
06:00 14.906310146NO21ONO0
07:00 14.706510144ONO15NO0
08:00 14.606510146NO19ONO0
09:00 15.306310153NO13NNO0
10:00 16.506110157NO21ONO0
11:00 18.405510159ONO23O60
12:00 18.205510147NO23NNO60
13:00 18.3051101510NO27NO30
14:00 17.805310147NO19NO0
15:00 17.805710147NO23ONO0
16:00 19.205110146NO21N30
17:00 19.704910146ONO21ONO60
18:00 17.905310147NO19ONO60
19:00 17.205510146NO23ONO0
20:00 16.905710154ONO21NO0
21:00 16.206310156NO23NO0
22:00 14.806710152N10N0
23:00 15.706510156ONO19OSO0
minuit 15.206610156ONO16ONO0

Graphique du 05-10-2019

 

Serveur OMMA